Chicago, IL

7:14 AM CDT en Octubre 22, 2014 (GMT -0500)
West Loop - Old St. Pats | Change Station
CLOSE
Current Station
Estación meteorológica personal
Location: Chicago, IL
Altura: 548 ft
Estaciones meteorológicas cercanas

Alt 548 ft 41.88 °N, 87.64 °W | Updated 44 seconds ago

Muy nublado
Muy nublado
48.7 ° F
Sensación térmica 49 ° F
N
2.0
Viento Variable Viento desde ENE
Gusts 3.0 mph

Hoy
Alta -- | Baja -- ° F
--% Posibilidad de precipitaciones
Ayer
Alta -- | Baja -- ° F
Precip. -- pul
7:10 AM 5:58 PM
Creciente menguante, 2% visible
Presión 30.33 pul
Visibilidad 10.0 Millas
Nubes Muy nublado 3100 ft
Vientos helados 49 ° F
Punto de rocío 40 ° F
Humedad 73%
Precipitaciones 0.00 pul
Espesor de la nieve No disponible.
UV 0 de una escala de 12
Polen .30 de una escala de 12
Ozono Buena
PM2.5 Buena
Flu Activity No Activity
METAR KMDW 221153Z 00000KT 10SM BKN031 07/03 A3032 RMK AO2 SLP271 T00720033 10111 20061 51012

More Conditions Fewer Conditions

Presión 30.33 pul
Visibilidad 10.0 Millas
Nubes Muy nublado 3100 ft
Vientos helados 49 ° F
Punto de rocío 40 ° F
Humedad 73%
Precipitaciones 0.00 pul
Espesor de la nieve No disponible.
UV 0 de una escala de 12
Polen .30 de una escala de 12
Ozono Buena
PM2.5 Buena
Flu Activity No Activity
METAR KMDW 221153Z 00000KT 10SM BKN031 07/03 A3032 RMK AO2 SLP271 T00720033 10111 20061 51012

More Conditions Fewer Conditions

10-Day Weather Forecast

Almanac

Astronomía

Oct. 22, 2014 Salida Puesta
Hora real 7:10 AM CDT 5:58 PM CDT
Crepúsculo civil 6:42 AM CDT 6:26 PM CDT
Crepúsculo náutico 6:10 AM CDT 6:59 PM CDT
Crepúsculo astronómico 5:37 AM CDT 7:31 PM CDT
Luna 5:50 AM CDT 5:25 PM CDT
Horas de luz 11h 44m
Horas de luz
10h 47m
Tomorrow will be 2m 38s shorter.
Creciente menguante, 2% of the Moon is Illuminated
Hoy
Creciente menguante
Oct 23
Nueva
Oct 30
Cuarto creciente
Nov 6
Luna llena
Nov 14
Cuarto menguante

Extremos de hoy

Máximos del estado Bajos del estado

Community

WunderPhotos

Upload Photos

1,763,906 ¡fotos cargadas!

Nearby

Calidad del aire

  Calidad del aire Índice AQ Contaminante
Ayer Buena
OZONE
Ayer Buena
PM2.5
Real Buena
PM2.5
Real Buena
OZONE
Miércoles Buena
PM2.5
Jueves Moderada
PM2.5
Viernes Buena
PM2.5
Sábado Moderada
PM2.5
Domingo Moderada
PM2.5

Grosos de nieve

Estación Profundido Altura
No tenemos constancia de nieve nueva.

Actividad de terremotos

Ciudad Distance Mag. Tiempo y dato
No hay informes recientes de la actividad sísmica.
Magnitud mínima muestra es 2,5.

Temperaturas de aguas costeras

Lugar Temperatura
Sin partes meteorológicos de las estaciones

Estaciones meteorológicas cercanas